LiveATC.Net - Listen to live air traffic control over the Internet!

Find LiveATC Audio Streams


Airport/ARTCC Code

Frequency
(e.g., 124.400, 128.75)
Site-wide search

Browse LiveATC Feeds
LiveATC Coverage Map
Top 50 LiveATC Feeds
Bad Weather Areas

LiveATC FAQ
Offer a LiveATC Feed
Contact LiveATC.net
Press Inquiries

LiveATC on iPhone
LiveATC on Android

Windows Phone
Windows 8/10

LiveATC Mobile
(Mobile browser)

ATC Audio Archives
Interesting Recordings

LiveATC Forums

Home Page
About LiveATC.net
Make a Donation
LiveATC Store

Terms of Use
Privacy Policy

Canadian Air Freqs

AIRMETs/SIGMETs

FAA Airport Status
Nat'l Airspace Status
Arrival Demand Charts


Server Software By:
Icecast.org
Liquidsoap

Select an area of interest:
U.S. Feeds: Class B Airports | Class C Airports | Class D/Other Airports | ARTCC (Centers)
International Feeds: Canada | Europe | Oceania | Asia | South America | North/Central America | Africa
Misc Feeds: HF Feeds
Search by ICAO/IATA airport code:   (e.g., kbos, kjfk, lax, eham, etc.)


Currently Available Live Feeds: 1425
Status Updated: Mon May 30 2016 12:41:01 UTC


NOTICE

Unauthorized use prohibited. See LiveATC.net Terms of Service

Asia Airport Feeds

 

LCPH Gnd/Twr/App/Radar (Archives)
Paphos, Cyprus

Feed Status: UP

Click on your favorite media player to listen:
Listen with WinAmp to LCPH Gnd/Twr/App/Radar  Listen with iTunes to LCPH Gnd/Twr/App/Radar  Click here to listen if using Real Player  Click here to listen if using Windows Media Player

Or simply listen in your browser:

Listen right in your browser(in browser, requires Flash)

LCPH 301200Z 27012KT 9999 FEW025 24/19 Q1015

LCPH Flight Activity (Flightaware)

Listeners: 0 out of 861 total

Nicosia Radar: 124.200
Nicosia West Radar: 125.500
Pafos Tower: 119.900
Paphos Gnd/Twr/App: 119.900

LTAC Tower/Approach (Archives)
Ankara, Turkey

Feed Status: UP

Click on your favorite media player to listen:
Listen with WinAmp to LTAC Tower/Approach  Listen with iTunes to LTAC Tower/Approach  Click here to listen if using Real Player  Click here to listen if using Windows Media Player

Or simply listen in your browser:

Listen right in your browser(in browser, requires Flash)

LTAC 301220Z 26003KT 220V300 9999 FEW030CB SCT035 22/09 Q1015 NOSIG

LTAC Flight Activity (Flightaware)

Listeners: 0 out of 861 total

Ankara Approach: 119.600
Ankara Approach (Center): 131.050
Ankara Approach (Upper): 132.150
Ankara Approach (West): 120.600
Ankara Approach (West): 128.800
Ankara Approach (West/Upper): 128.450
Esenboga Tower: 118.100

LTAF Tower/Approach (Archives)
Adana, Turkey

Feed Status: UP

Click on your favorite media player to listen:
Listen with WinAmp to LTAF Tower/Approach  Listen with iTunes to LTAF Tower/Approach  Click here to listen if using Real Player  Click here to listen if using Windows Media Player

Or simply listen in your browser:

Listen right in your browser(in browser, requires Flash)

LTAF 301220Z 20010KT 9999 SCT035 27/17 Q1013 TEMPO -TSRA

LTAF Flight Activity (Flightaware)

Listeners: 0 out of 861 total

Adana Approach: 118.300
Adana Tower: 131.100
Adana Tower: 121.100

HF CWP 8903
Manila, Philippines

Feed Status: DOWN
Offline since: 2016-05-29 03:20:03 UTC

HF CWP: 8.903

HF SEA-2 8942
Manila, Philippines

Feed Status: DOWN
Offline since: 2016-05-29 03:20:03 UTC

HF SEA-2: 8.942

OKBK Gnd/Twr/App/Radar
Kuwait City, Kuwait

Feed Status: DOWN
Offline since: 2016-05-26 22:42:03 UTC
OKBK 301200Z 02012KT CAVOK 42/04 Q1004 NOSIG

Kuwait Approach: 121.300
Kuwait Approach: 124.800
Kuwait Ground: 121.700
Kuwait Radar (Center): 125.300
Kuwait Tower: 118.300

OMDB Arrival (Archives)
Dubai, United Arab Emirates

Feed Status: UP

Click on your favorite media player to listen:
Listen with WinAmp to OMDB Arrival  Listen with iTunes to OMDB Arrival  Click here to listen if using Real Player  Click here to listen if using Windows Media Player

Or simply listen in your browser:

Listen right in your browser(in browser, requires Flash)

OMDB 301200Z 27010KT 180V290 CAVOK 39/17 Q1000 NOSIG


Listeners: 0 out of 861 total

Dubai Arrival: 124.900

OMDB Clearance Delivery (Archives)
Dubai, United Arab Emirates

Feed Status: UP

Click on your favorite media player to listen:
Listen with WinAmp to OMDB Clearance Delivery  Listen with iTunes to OMDB Clearance Delivery  Click here to listen if using Real Player  Click here to listen if using Windows Media Player

Or simply listen in your browser:

Listen right in your browser(in browser, requires Flash)

OMDB 301200Z 27010KT 180V290 CAVOK 39/17 Q1000 NOSIG


Listeners: 0 out of 861 total

Dubai Clearance Delivery: 120.350

OMDB Ground (Primary) (Archives)
Dubai, United Arab Emirates

Feed Status: UP

Click on your favorite media player to listen:
Listen with WinAmp to OMDB Ground (Primary)  Listen with iTunes to OMDB Ground (Primary)  Click here to listen if using Real Player  Click here to listen if using Windows Media Player

Or simply listen in your browser:

Listen right in your browser(in browser, requires Flash)

OMDB 301200Z 27010KT 180V290 CAVOK 39/17 Q1000 NOSIG


Listeners: 0 out of 861 total

Dubai Ground (Primary): 118.850

OMDB Ground (Secondary) (Archives)
Dubai, United Arab Emirates

Feed Status: UP

Click on your favorite media player to listen:
Listen with WinAmp to OMDB Ground (Secondary)  Listen with iTunes to OMDB Ground (Secondary)  Click here to listen if using Real Player  Click here to listen if using Windows Media Player

Or simply listen in your browser:

Listen right in your browser(in browser, requires Flash)

OMDB 301200Z 27010KT 180V290 CAVOK 39/17 Q1000 NOSIG


Listeners: 0 out of 861 total

Dubai Ground (Secondary): 118.350

OMDB North Dep (Archives)
Dubai, United Arab Emirates

Feed Status: UP

Click on your favorite media player to listen:
Listen with WinAmp to OMDB North Dep  Listen with iTunes to OMDB North Dep  Click here to listen if using Real Player  Click here to listen if using Windows Media Player

Or simply listen in your browser:

Listen right in your browser(in browser, requires Flash)

OMDB 301200Z 27010KT 180V290 CAVOK 39/17 Q1000 NOSIG


Listeners: 0 out of 861 total

Dubai Departure (North): 124.450

OMDB Tower #1 (Archives)
Dubai, United Arab Emirates

Feed Status: UP

Click on your favorite media player to listen:
Listen with WinAmp to OMDB Tower #1  Listen with iTunes to OMDB Tower #1  Click here to listen if using Real Player  Click here to listen if using Windows Media Player

Or simply listen in your browser:

Listen right in your browser(in browser, requires Flash)

OMDB 301200Z 27010KT 180V290 CAVOK 39/17 Q1000 NOSIG


Listeners: 0 out of 861 total

Dubai Tower: 119.550

OMDB Tower #2 (Archives)
Dubai, United Arab Emirates

Feed Status: UP

Click on your favorite media player to listen:
Listen with WinAmp to OMDB Tower #2  Listen with iTunes to OMDB Tower #2  Click here to listen if using Real Player  Click here to listen if using Windows Media Player

Or simply listen in your browser:

Listen right in your browser(in browser, requires Flash)

OMDB 301200Z 27010KT 180V290 CAVOK 39/17 Q1000 NOSIG


Listeners: 0 out of 861 total

Dubai Tower: 118.750

OMDB Tower (both) (Archives)
Dubai, United Arab Emirates

Feed Status: UP

Click on your favorite media player to listen:
Listen with WinAmp to OMDB Tower (both)  Listen with iTunes to OMDB Tower (both)  Click here to listen if using Real Player  Click here to listen if using Windows Media Player

Or simply listen in your browser:

Listen right in your browser(in browser, requires Flash)

OMDB 301200Z 27010KT 180V290 CAVOK 39/17 Q1000 NOSIG


Listeners: 0 out of 861 total

Dubai Tower: 118.750
Dubai Tower: 119.550

OMSJ Tower (Archives)
Dubai, United Arab Emirates

Feed Status: UP

Click on your favorite media player to listen:
Listen with WinAmp to OMSJ Tower  Listen with iTunes to OMSJ Tower  Click here to listen if using Real Player  Click here to listen if using Windows Media Player

Or simply listen in your browser:

Listen right in your browser(in browser, requires Flash)

OMSJ 301200Z 28011KT CAVOK 40/16 Q1000


Listeners: 0 out of 861 total

Sharjah Tower: 118.600

OPKC Gnd/Twr/Radar (Archives)
Karachi, Pakistan

Feed Status: UP

Click on your favorite media player to listen:
Listen with WinAmp to OPKC Gnd/Twr/Radar  Listen with iTunes to OPKC Gnd/Twr/Radar  Click here to listen if using Real Player  Click here to listen if using Windows Media Player

Or simply listen in your browser:

Listen right in your browser(in browser, requires Flash)

OPKC 301225Z 24016KT 6000 FEW020 32/24 Q1000 TEMPO 25015G25KT


Listeners: 0 out of 861 total

Karachi Ground: 121.600
Karachi Radar: 125.500
Karachi Tower: 118.300

OPLA ATIS (Archives)
Lahore, Pakistan

Feed Status: UP

Click on your favorite media player to listen:
Listen with WinAmp to OPLA ATIS  Listen with iTunes to OPLA ATIS  Click here to listen if using Real Player  Click here to listen if using Windows Media Player

Or simply listen in your browser:

Listen right in your browser(in browser, requires Flash)

OPLA 301225Z 17008KT 6000 FEW100 32/19 Q1002


Listeners: 0 out of 861 total

Lahore ATIS: 126.300

OPLA/OPLH Gnd/Twr/App (Archives)
Lahore, Pakistan

Feed Status: UP

Click on your favorite media player to listen:
Listen with WinAmp to OPLA/OPLH Gnd/Twr/App  Listen with iTunes to OPLA/OPLH Gnd/Twr/App  Click here to listen if using Real Player  Click here to listen if using Windows Media Player

Or simply listen in your browser:

Listen right in your browser(in browser, requires Flash)

OPLA 301225Z 17008KT 6000 FEW100 32/19 Q1002


Listeners: 1 out of 861 total

Lahore Approach: 121.300
Lahore Approach: 125.300
Lahore Control: 127.500
Lahore Ground: 118.400
Lahore Tower: 118.100
Lahore Tower: 121.800
Walton (OPLH) Tower: 119.400

OPLA/OPLH Gnd/Twr/App (Archives)
Lahore, Pakistan

Feed Status: UP

Click on your favorite media player to listen:
Listen with WinAmp to OPLA/OPLH Gnd/Twr/App  Listen with iTunes to OPLA/OPLH Gnd/Twr/App  Click here to listen if using Real Player  Click here to listen if using Windows Media Player

Or simply listen in your browser:

Listen right in your browser(in browser, requires Flash)

OPLA 301225Z 17008KT 6000 FEW100 32/19 Q1002


Listeners: 1 out of 861 total

Lahore Approach: 121.300
Lahore Approach: 125.300
Lahore Control: 127.500
Lahore Ground: 118.400
Lahore Tower: 118.100
Lahore Tower: 121.800
Walton (OPLH) Tower: 119.400

OPMT Twr/App
Multan, Pakistan

Feed Status: DOWN
Offline since: 2016-05-02 19:43:03 UTC
OPMT 301155Z 13006KTS 0800 DU BKN100 38/22 Q0998 TEMPO 36030KTS 0400 DS

Multan Approach/Departure: 123.150
Multan Tower: 119.100

OPRN Approach
Islamabad, Pakistan

Feed Status: DOWN
Offline since: 2016-05-30 11:41:02 UTC
OPRN 301200Z 13024KT 9999 SCT040 36/17 Q1003.9/29.65

Islamabad Approach: 124.900

OPRN ATIS
Islamabad, Pakistan

Feed Status: DOWN
Offline since: 2016-05-30 11:41:02 UTC
OPRN 301200Z 13024KT 9999 SCT040 36/17 Q1003.9/29.65

Islamabad ATIS: 129.600

OPRN Tower
Islamabad, Pakistan

Feed Status: DOWN
Offline since: 2016-05-30 11:41:02 UTC
OPRN 301200Z 13024KT 9999 SCT040 36/17 Q1003.9/29.65

Islamabad Tower: 123.700

RCKH Ground
Kaohsiung, Taiwan

Feed Status: DOWN
Offline since: 2015-05-24 11:58:03 UTC
RCKH 301200Z 28006KT 9999 FEW013 SCT030 29/27 Q1010 NOSIG RMK A2985

Kaohsiung Ground: 121.900

RCKH Tower
Kaohsiung, Taiwan

Feed Status: DOWN
Offline since: 2015-06-03 18:36:03 UTC
RCKH 301200Z 28006KT 9999 FEW013 SCT030 29/27 Q1010 NOSIG RMK A2985

Kaohsiung Tower: 118.700

RCSS Approach (Archives)
Taipei, Taiwan

Feed Status: UP

Click on your favorite media player to listen:
Listen with WinAmp to RCSS Approach  Listen with iTunes to RCSS Approach  Click here to listen if using Real Player  Click here to listen if using Windows Media Player

Or simply listen in your browser:

Listen right in your browser(in browser, requires Flash)

RCSS 301200Z 10007KT 9999 VCSH FEW012 BKN018 BKN030 28/24 Q1009 NOSIG RMK A2982

RCSS Flight Activity (Flightaware)

Listeners: 0 out of 861 total

Taipei Approach: 119.700

RCSS Ground/Delivery (Archives)
Taipei, Taiwan

Feed Status: UP

Click on your favorite media player to listen:
Listen with WinAmp to RCSS Ground/Delivery  Listen with iTunes to RCSS Ground/Delivery  Click here to listen if using Real Player  Click here to listen if using Windows Media Player

Or simply listen in your browser:

Listen right in your browser(in browser, requires Flash)

RCSS 301200Z 10007KT 9999 VCSH FEW012 BKN018 BKN030 28/24 Q1009 NOSIG RMK A2982

RCSS Flight Activity (Flightaware)

Listeners: 0 out of 861 total

Songshan Clearance Delivery: 121.200
Songshan Ground: 121.900

RCSS Tower (Archives)
Taipei, Taiwan

Feed Status: UP

Click on your favorite media player to listen:
Listen with WinAmp to RCSS Tower  Listen with iTunes to RCSS Tower  Click here to listen if using Real Player  Click here to listen if using Windows Media Player

Or simply listen in your browser:

Listen right in your browser(in browser, requires Flash)

RCSS 301200Z 10007KT 9999 VCSH FEW012 BKN018 BKN030 28/24 Q1009 NOSIG RMK A2982

RCSS Flight Activity (Flightaware)

Listeners: 0 out of 861 total

Songshan Tower: 118.100

RCTP Tower (Archives)
Taipei, Taiwan

Feed Status: UP

Click on your favorite media player to listen:
Listen with WinAmp to RCTP Tower  Listen with iTunes to RCTP Tower  Click here to listen if using Real Player  Click here to listen if using Windows Media Player

Or simply listen in your browser:

Listen right in your browser(in browser, requires Flash)

RCTP 301208Z 34005KT 9999 SCT010 BKN015 BKN025 28/26 Q1010 NOSIG RMK A2983

RCTP Flight Activity (Flightaware)

Listeners: 3 out of 861 total

Taipei Tower: 118.700

RJSF RDO (Archives)
Sukagawa, Japan

Feed Status: UP

Click on your favorite media player to listen:
Listen with WinAmp to RJSF RDO  Listen with iTunes to RJSF RDO  Click here to listen if using Real Player  Click here to listen if using Windows Media Player

Or simply listen in your browser:

Listen right in your browser(in browser, requires Flash)

RJSF 301100Z VRB01KT 9999 SCT050 BKN060 16/12 Q1008

RJSF Flight Activity (Flightaware)

Listeners: 0 out of 861 total

Fukushima Radio: 118.050

RJTT App/Dep (Archives)
Tokyo, Japan

Feed Status: UP

Click on your favorite media player to listen:
Listen with WinAmp to RJTT App/Dep  Listen with iTunes to RJTT App/Dep  Click here to listen if using Real Player  Click here to listen if using Windows Media Player

Or simply listen in your browser:

Listen right in your browser(in browser, requires Flash)

RJTT 301200Z 04009KT 7000 -RA FEW006 SCT009 BKN020 17/16 Q1007 TEMPO FEW005 BKN008

RJTT Flight Activity (Flightaware)

Listeners: 30 out of 861 total

Tokyo Approach: 119.100
Tokyo Approach: 119.400
Tokyo Departure: 120.800
Tokyo Departure: 126.000

RJTT Tokyo Control (Archives)
Tokyo, Japan

Feed Status: UP

Click on your favorite media player to listen:
Listen with WinAmp to RJTT Tokyo Control  Listen with iTunes to RJTT Tokyo Control  Click here to listen if using Real Player  Click here to listen if using Windows Media Player

Or simply listen in your browser:

Listen right in your browser(in browser, requires Flash)

RJTT 301200Z 04009KT 7000 -RA FEW006 SCT009 BKN020 17/16 Q1007 TEMPO FEW005 BKN008

RJTT Flight Activity (Flightaware)

Listeners: 20 out of 861 total

Tokyo Control: 133.700
Tokyo Control: 125.900
Tokyo Control: 120.500

RJTT Twr/TCA (Archives)
Tokyo, Japan

Feed Status: UP

Click on your favorite media player to listen:
Listen with WinAmp to RJTT Twr/TCA  Listen with iTunes to RJTT Twr/TCA  Click here to listen if using Real Player  Click here to listen if using Windows Media Player

Or simply listen in your browser:

Listen right in your browser(in browser, requires Flash)

RJTT 301200Z 04009KT 7000 -RA FEW006 SCT009 BKN020 17/16 Q1007 TEMPO FEW005 BKN008

RJTT Flight Activity (Flightaware)

Listeners: 31 out of 861 total

Tokyo TCA: 124.750
Tokyo Tower: 124.350
Tokyo Tower: 118.725
Tokyo Tower: 118.575
Tokyo Tower: 118.100

RKSG Gnd/Twr/App (Archives)
Pyeongtaek, Korea, Republic of

Feed Status: UP

Click on your favorite media player to listen:
Listen with WinAmp to RKSG Gnd/Twr/App  Listen with iTunes to RKSG Gnd/Twr/App  Click here to listen if using Real Player  Click here to listen if using Windows Media Player

Or simply listen in your browser:

Listen right in your browser(in browser, requires Flash)

RKSG 301158Z 33006KT 2SM R32/4000FT BR CLR 19/19 A2976 RMK AO2A SLP080 T01870187 10276 20187 52010 $

RKSG Flight Activity (Flightaware)

Listeners: 0 out of 861 total

Desiderio Final: 255.800
Desiderio GCA: 226.800
Desiderio GCA: 127.000
Desiderio Ground (Camp Humphreys A-511 AAF): 119.500
Desiderio Ground UHF: 229.700
Desiderio Ops: 294.100
Desiderio Tower (Camp Humphreys A-511 AAF): 122.500
Desiderio Tower UHF: 257.800

RKRR Incheon Control (Archives)
Incheon, Korea, Republic of

Feed Status: UP

Click on your favorite media player to listen:
Listen with WinAmp to RKRR Incheon Control  Listen with iTunes to RKRR Incheon Control  Click here to listen if using Real Player  Click here to listen if using Windows Media Player

Or simply listen in your browser:

Listen right in your browser(in browser, requires Flash)

RKSI 301200Z 22006KT 3600 HZ NSC 17/14 Q1007 NOSIG

RKSI Flight Activity (Flightaware)

Listeners: 8 out of 861 total

Incheon Control North Sector (Primary): 128.700
Incheon Control North Sector (Secondary): 132.800
Incheon Control Northwest Sector (Primary): 126.175
Incheon Control Northwest Sector (Secondary): 123.725

RKSO Gnd/Twr/App (Archives)
Pyeongtaek, Korea, Republic of

Feed Status: UP

Click on your favorite media player to listen:
Listen with WinAmp to RKSO Gnd/Twr/App  Listen with iTunes to RKSO Gnd/Twr/App  Click here to listen if using Real Player  Click here to listen if using Windows Media Player

Or simply listen in your browser:

Listen right in your browser(in browser, requires Flash)

RKSO 301158Z 27005KT 2SM BR CLR 19/15 A2974 RMK AO2A SLP074 T01940153 10275 20193 52013 $

RKSO Flight Activity (Flightaware)

Listeners: 1 out of 861 total

25 FS Ops: 229.000
36FS Ops: 371.300
Osan Air Base Approach/Departure: 127.900
Osan Air Base Approach/Departure: 133.650
Osan Air Base Ground: 132.450
Osan Air Base Tower: 122.100
Osan App/Dep UHF: 306.600
Osan App/Dep UHF: 234.300
Osan App/Dep UHF (possibly inactive): 306.300
Osan App/Dep UHF (possibly inactive): 363.100
Osan Ground UHF: 253.700
Osan SAR: 282.800
Osan SAR: 381.000
Osan SOF: 299.800
Osan Tower UHF: 308.800
Stallion Ops: 276.200

RPLL Approach/Departure (Archives)
Manila, Philippines

Feed Status: UP

Click on your favorite media player to listen:
Listen with WinAmp to RPLL Approach/Departure  Listen with iTunes to RPLL Approach/Departure  Click here to listen if using Real Player  Click here to listen if using Windows Media Player

Or simply listen in your browser:

Listen right in your browser(in browser, requires Flash)

RPLL 301200 VRB03KT 9999 FEW023CB FEW025 SCT100 32/25 Q1010 NOSIG RMK A2993 CB SW NW

RPLL Flight Activity (Flightaware)

Listeners: 2 out of 861 total

Manila Approach/Departure: 121.100
Manila Approach/Departure: 119.700
Manila Center/Control: 128.300

RPLL Tower
Manila, Philippines

Feed Status: DOWN
Offline since: 2016-05-30 12:40:03 UTC
RPLL 301200 VRB03KT 9999 FEW023CB FEW025 SCT100 32/25 Q1010 NOSIG RMK A2993 CB SW NW

Manila Tower: 118.100

RPUN Tower (Archives)
Pili-Luzon Island, Philippines

Feed Status: UP

Click on your favorite media player to listen:
Listen with WinAmp to RPUN Tower  Listen with iTunes to RPUN Tower  Click here to listen if using Real Player  Click here to listen if using Windows Media Player

Or simply listen in your browser:

Listen right in your browser(in browser, requires Flash)

METAR NOT AVAILABLE

RPUN Flight Activity (Flightaware)

Listeners: 0 out of 861 total

Naga Tower: 122.100

HF CWP/SEA (Archives)
Pyeongtaek, Korea, Republic of

Feed Status: UP

Click on your favorite media player to listen:
Listen with WinAmp to HF CWP/SEA  Listen with iTunes to HF CWP/SEA  Click here to listen if using Real Player  Click here to listen if using Windows Media Player

Or simply listen in your browser:

Listen right in your browser(in browser, requires Flash)


Listeners: 0 out of 861 total

CWP 1 (Tokyo): 11.384
CWP 1/2 (Tokyo): 13.300
CWP-1/2 (San Francisco): 17.904
CWP-1/2 (Tokyo/Manila): 8.903
CWP-1/2 (Tokyo/San Francisco): 21.985
SEA-2 (Manila): 8.942

UAAA Approach (Archives)
Almaty, Kazakhstan

Feed Status: UP

Click on your favorite media player to listen:
Listen with WinAmp to UAAA Approach  Listen with iTunes to UAAA Approach  Click here to listen if using Real Player  Click here to listen if using Windows Media Player

Or simply listen in your browser:

Listen right in your browser(in browser, requires Flash)

UAAA 301200Z 05004MPS 9999 SCT050CB BKN100 21/11 Q1011 R05L/CLRD65 R05R/1///60 NOSIG

UAAA Flight Activity (Flightaware)

Listeners: 0 out of 861 total

Almaty Approach: 124.800

UAAA Tower (Archives)
Almaty, Kazakhstan

Feed Status: UP

Click on your favorite media player to listen:
Listen with WinAmp to UAAA Tower  Listen with iTunes to UAAA Tower  Click here to listen if using Real Player  Click here to listen if using Windows Media Player

Or simply listen in your browser:

Listen right in your browser(in browser, requires Flash)

UAAA 301200Z 05004MPS 9999 SCT050CB BKN100 21/11 Q1011 R05L/CLRD65 R05R/1///60 NOSIG

UAAA Flight Activity (Flightaware)

Listeners: 0 out of 861 total

Almaty Tower: 119.400

UAAA Tower/Approach (Archives)
Almaty, Kazakhstan

Feed Status: UP

Click on your favorite media player to listen:
Listen with WinAmp to UAAA Tower/Approach  Listen with iTunes to UAAA Tower/Approach  Click here to listen if using Real Player  Click here to listen if using Windows Media Player

Or simply listen in your browser:

Listen right in your browser(in browser, requires Flash)

UAAA 301200Z 05004MPS 9999 SCT050CB BKN100 21/11 Q1011 R05L/CLRD65 R05R/1///60 NOSIG

UAAA Flight Activity (Flightaware)

Listeners: 0 out of 861 total

Almaty Approach: 124.800
Almaty Tower: 119.400

UIII Irkutsk Control (Archives)
Irkutsk, Russia

Feed Status: UP

Click on your favorite media player to listen:
Listen with WinAmp to UIII Irkutsk Control  Listen with iTunes to UIII Irkutsk Control  Click here to listen if using Real Player  Click here to listen if using Windows Media Player

Or simply listen in your browser:

Listen right in your browser(in browser, requires Flash)

UIII 301200Z 31005MPS CAVOK 15/05 Q1012 R30/CLRD60 NOSIG RMK QFE715/0953

UIII Flight Activity (Flightaware)

Listeners: 2 out of 861 total

Irkutsk Approach: 125.200
Irkutsk Control (Sector 1): 133.400
Irkutsk Control (Sector 2): 124.700
Irkutsk Control (Sector 3): 134.100
Irkutsk Ground: 121.700
Irkutsk Radar: 119.300
Irkutsk Tower: 118.100

Notes:
Maximum traffic from 1700-0900 UTC
Traffic from Europe to Asia (Lufthansa, Air France, KLM, AA, Air Canada, Cathay, Singapore), all Chinese, Korean routes to Europe.

UNKL Gnd/Twr/App (Archives)
Krasnoyarsk, Russia

Feed Status: UP

Click on your favorite media player to listen:
Listen with WinAmp to UNKL Gnd/Twr/App  Listen with iTunes to UNKL Gnd/Twr/App  Click here to listen if using Real Player  Click here to listen if using Windows Media Player

Or simply listen in your browser:

Listen right in your browser(in browser, requires Flash)

UNKL 301200Z 12005MPS CAVOK 13/M01 Q1010 R11/CLRD65 NOSIG RMK QFE732

UNKL Flight Activity (Flightaware)

Listeners: 1 out of 861 total

Krasnoyarsk Approach: 127.700
Krasnoyarsk Ground: 121.700
Krasnoyarsk Krug: 122.000
Krasnoyarsk Tower: 118.300

UNNT Gnd/Twr/App/Radar/Misc (Archives)
Novosibirsk, Russia

Feed Status: UP

Click on your favorite media player to listen:
Listen with WinAmp to UNNT Gnd/Twr/App/Radar/Misc  Listen with iTunes to UNNT Gnd/Twr/App/Radar/Misc  Click here to listen if using Real Player  Click here to listen if using Windows Media Player

Or simply listen in your browser:

Listen right in your browser(in browser, requires Flash)

UNNT 301200Z 21006MPS CAVOK 19/02 Q1003 R25/090070 R34/090070 NOSIG RMK QFE742/0990

UNNT Flight Activity (Flightaware)

Listeners: 3 out of 861 total

ACC_Novosibirsk-Control (Military): 128.500
ACC_Novosibirsk-Control (Southeast): 126.100
ACC_Novosibirsk-Control (West): 127.000
GPA_Kristallik (airfield Severniy): 123.425
GPA_Palma (airfield Mochische): 118.000
GPA_Sernisiy (airfield Chkalovskiy): 124.750
GPA_Tomsk Information 1: 134.500
GPA_Vihrevoy (airfield Evsino): 126.000
MIL_Larek: 123.750
MIL_Maneken (airfield Chkalovskiy): 123.550
MIL_Novosibirsk-1 (airbase Tolmachevo: 124.000
MIL_Noyabr 31: 124.900
MIL_Polyana: 129.800
MIL_Stvorka: 130.750
MIL_Trimaran: 124.500
OVB_Apron: 118.800
OVB_Backup frequency: 127.100
OVB_Novosibirsk-Approach: 127.500
OVB_Novosibirsk-Ground: 121.700
OVB_Novosibirsk-Radar: 122.000
OVB_Novosibirsk-Tower: 118.500
OVB_Novosibirsk-Transit: 131.600
OVB_S7 Service: 131.925
OVB_Tech. room: 118.900
SP_Air-to-Air: 123.450
SP_Air-to-Air 2: 123.400
SP_China chat: 136.975
SP_Common backup frequency: 129.000
SP_Emergency: 121.500
SP_Emergency 2: 123.100
SP_Flyoff: 124.375
SURF_Boarding: 163.425
SURF_Cargo operating: 163.300
SURF_Ground surf: 163.375
SURF_O&D Service: 163.325
SURF_Registration: 163.625
SURF_Security: 163.750
SURF_Supplies: 163.450
SURF_Tower surf: 163.650
SURF_Vehicles: 163.200

UNOO Gnd/Tower/App (Archives)
Omsk, Russia

Feed Status: UP

Click on your favorite media player to listen:
Listen with WinAmp to UNOO Gnd/Tower/App  Listen with iTunes to UNOO Gnd/Tower/App  Click here to listen if using Real Player  Click here to listen if using Windows Media Player

Or simply listen in your browser:

Listen right in your browser(in browser, requires Flash)

UNOO 301200Z 34006MPS 9999 -SHRA BKN010 BKN033CB 11/08 Q1001 R25/190055 NOSIG RMK QFE743

UNOO Flight Activity (Flightaware)

Listeners: 0 out of 861 total

Aerodrom Kalachevo: 123.300
Aerodrom Marianovka: 123.000
Emergency/Guard: 121.500
Novosibirsk Control (Sector 7): 132.500
Novosibirsk Control (Sector 8): 132.900
Omsk Approach (FL060-FL265): 131.200
Omsk Apron: 118.800
Omsk Start/Radar: 119.000
Omsk Taxiing: 121.700
Omsk Transit: 131.700
UNOS/OMSK-Severny: 124.000

UNTT Gnd/Info/Radar/Control (Archives)
Tomsk, Russia

Feed Status: UP

Click on your favorite media player to listen:
Listen with WinAmp to UNTT Gnd/Info/Radar/Control  Listen with iTunes to UNTT Gnd/Info/Radar/Control  Click here to listen if using Real Player  Click here to listen if using Windows Media Player

Or simply listen in your browser:

Listen right in your browser(in browser, requires Flash)

UNTT Flight Activity (Flightaware)

Listeners: 0 out of 861 total

Krasnoyarsk Control (Sector 2): 133.300
Novosibirsk Control (Sector 2): 126.100
Novosibirsk Control (Sector 3): 129.300
Novosibirsk Control (Sector 5): 132.300
Tomsk Ground: 118.800
Tomsk Informaciya: 126.000
Tomsk Krug (Radar): 127.300
Troynik (Golovino): 122.400

USCC Gnd/Twr/App/Control
Chelyabinsk, Russia

Feed Status: DOWN
Offline since: 2016-05-26 20:46:04 UTC
USCC 301200Z 02007MPS 9999 SCT025CB 12/05 Q1009 R09/000060 TEMPO VRB15MPS TSRA SQ RMK QFE736

Air to Air: 123.450
Chelyabinsk Approach: 124.700
Chelyabinsk Control (sector 008*-105*): 133.200
Chelyabinsk Control (sector 105*-245*): 125.500
Chelyabinsk Control (sector 245*-008*) : 125.400
Chelyabinsk Start: 125.200
Chelyabinsk Transit: 131.600
Magnitogorsk Control : 132.200
USCG Shagol Approach: 128.500
USCG Shagol Start: 124.000
USCG Shagol Tower: 130.000
XSCW Kalachyovo (Chelavia): 122.750

USTR Gnd/Twr/App (Archives)
Tyumen, Russia

Feed Status: UP

Click on your favorite media player to listen:
Listen with WinAmp to USTR Gnd/Twr/App  Listen with iTunes to USTR Gnd/Twr/App  Click here to listen if using Real Player  Click here to listen if using Windows Media Player

Or simply listen in your browser:

Listen right in your browser(in browser, requires Flash)

USTR 301200Z 33010MPS CAVOK 11/M04 Q1009 WS R30 R30/CLRD65 TEMPO 34016MPS RMK QFE747/0996

USTR Flight Activity (Flightaware)

Listeners: 0 out of 861 total

Tyumen Approach: 126.100
Tyumen Control: 132.600
Tyumen Control: 133.600
Tyumen Info (Regional): 133.400
Tyumen Start: 118.200
Tyumen Transit: 131.800

VCBI Radar
Colombo, Sri Lanka

Feed Status: DOWN
Offline since: 2016-05-29 22:43:03 UTC
VCBI 301010Z 24010KT 9999 FEW012 SCT016 FEW018CB 30/25 Q1007 NOSIG RMK NE/E/SE/S

Colombo Radar: 126.000

VHHH App/Dep/Radar (Archives)
Hong Kong, Hong Kong

Feed Status: UP

Click on your favorite media player to listen:
Listen with WinAmp to VHHH App/Dep/Radar  Listen with iTunes to VHHH App/Dep/Radar  Click here to listen if using Real Player  Click here to listen if using Windows Media Player

Or simply listen in your browser:

Listen right in your browser(in browser, requires Flash)

VHHH 301200Z 22009KT 9999 FEW014 31/25 Q1009 NOSIG

VHHH Flight Activity (Flightaware)

Listeners: 1 out of 861 total

Hong Kong Approach: 119.100
Hong Kong Departure Control: 122.000
Hong Kong Departure Control: 123.800
Hong Kong Director: 119.500
Hong Kong Zone Control: 120.600


Note: Feed manually alternates between listed frequencies.

VHHH Approach 119.1
Hong Kong, Hong Kong

Feed Status: DOWN
Offline since: 2016-05-07 00:35:03 UTC
VHHH 301200Z 22009KT 9999 FEW014 31/25 Q1009 NOSIG

Hong Kong Approach: 119.100

VHHH Director
Hong Kong, Hong Kong

Feed Status: DOWN
Offline since: 2016-05-07 00:35:03 UTC
VHHH 301200Z 22009KT 9999 FEW014 31/25 Q1009 NOSIG

Hong Kong Director: 119.500

VHHH Ground
Hong Kong, Hong Kong

Feed Status: DOWN
Offline since: 2016-05-07 00:35:03 UTC
VHHH 301200Z 22009KT 9999 FEW014 31/25 Q1009 NOSIG

Hong Kong Ground (North): 121.600
Hong Kong Ground (South): 122.550

VHHH Ground (North)
Hong Kong, Hong Kong

Feed Status: DOWN
Offline since: 2016-05-07 00:35:03 UTC
VHHH 301200Z 22009KT 9999 FEW014 31/25 Q1009 NOSIG

Hong Kong Ground (North): 121.600

VHHH Ground (South)
Hong Kong, Hong Kong

Feed Status: DOWN
Offline since: 2016-05-07 00:35:03 UTC
VHHH 301200Z 22009KT 9999 FEW014 31/25 Q1009 NOSIG

Hong Kong Ground (South): 122.550

VHHH Tower
Hong Kong, Hong Kong

Feed Status: DOWN
Offline since: 2016-05-07 00:36:03 UTC
VHHH 301200Z 22009KT 9999 FEW014 31/25 Q1009 NOSIG

Hong Kong Tower (North): 118.200
Hong Kong Tower (South): 118.400

VHHH Tower (North)
Hong Kong, Hong Kong

Feed Status: DOWN
Offline since: 2016-05-07 00:35:03 UTC
VHHH 301200Z 22009KT 9999 FEW014 31/25 Q1009 NOSIG

Hong Kong Tower (North): 118.200

VHHH Tower (South)
Hong Kong, Hong Kong

Feed Status: DOWN
Offline since: 2016-05-07 00:35:03 UTC
VHHH 301200Z 22009KT 9999 FEW014 31/25 Q1009 NOSIG

Hong Kong Tower (South): 118.400

VHHH Zone
Hong Kong, Hong Kong

Feed Status: DOWN
Offline since: 2016-05-07 00:35:03 UTC
VHHH 301200Z 22009KT 9999 FEW014 31/25 Q1009 NOSIG

Hong Kong Zone: 120.600

VTSM Tower
Koh Samui, Thailand

Feed Status: DOWN
Offline since: 2016-05-10 14:01:07 UTC
VTSM 301200Z 00000KT 9000 FEW20 28/24 Q1008 A2978

Samui Tower: 118.900

WBKK Gnd/Twr/App (Archives)
Kota Kinabalu, Malaysia

Feed Status: UP

Click on your favorite media player to listen:
Listen with WinAmp to WBKK Gnd/Twr/App  Listen with iTunes to WBKK Gnd/Twr/App  Click here to listen if using Real Player  Click here to listen if using Windows Media Player

Or simply listen in your browser:

Listen right in your browser(in browser, requires Flash)

WBKK 301200Z 06001KT 9999 FEW014 SCT140 BKN270 26/25 Q1010 NOSIG


Listeners: 3 out of 861 total

Kinabalu Director: 119.100
Kinabalu Ground: 121.600
Kinabalu Radar: 126.100
Kinabalu Radar: 132.450
Kinabalu Tower: 118.300

WIPP Gnd/Twr/App/Dep (Archives)
Palembang, Indonesia

Feed Status: UP

Click on your favorite media player to listen:
Listen with WinAmp to WIPP Gnd/Twr/App/Dep  Listen with iTunes to WIPP Gnd/Twr/App/Dep  Click here to listen if using Real Player  Click here to listen if using Windows Media Player

Or simply listen in your browser:

Listen right in your browser(in browser, requires Flash)

WIPP 301130Z 15002KT 9999 FEW012 27/24 Q1010


Listeners: 0 out of 861 total

Palembang Approach/Departure/Center: 119.200
Palembang Ground/Tower: 118.100

WMKB Radar (Archives)
Penang, Malaysia

Feed Status: UP

Click on your favorite media player to listen:
Listen with WinAmp to WMKB Radar  Listen with iTunes to WMKB Radar  Click here to listen if using Real Player  Click here to listen if using Windows Media Player

Or simply listen in your browser:

Listen right in your browser(in browser, requires Flash)

WMKB 301200Z 04006KT 9000 FEW025 SCT140 BKN270 28/25 Q1009 NOSIG


Listeners: 2 out of 861 total

Butterworth Radar: 125.800

Lumpur Control/Radar (North) (Archives)
Sepang, Malaysia

Feed Status: UP

Click on your favorite media player to listen:
Listen with WinAmp to Lumpur Control/Radar (North)  Listen with iTunes to Lumpur Control/Radar (North)  Click here to listen if using Real Player  Click here to listen if using Windows Media Player

Or simply listen in your browser:

Listen right in your browser(in browser, requires Flash)

WMKK 301200Z 25003KT 9999 FEW030 SCT140 BKN280 29/24 Q1008 NOSIG


Listeners: 1 out of 861 total

Lumpur Control/Radar (North): 132.800

Lumpur Control/Radar (South)
Sepang, Malaysia

Feed Status: DOWN
Offline since: 2016-05-26 06:56:03 UTC
WMKK 301200Z 25003KT 9999 FEW030 SCT140 BKN280 29/24 Q1008 NOSIG

Lumpur Control/Radar (South): 123.750

WMKK Lumpur Control/Radar (East)
Sepang, Malaysia

Feed Status: DOWN
Offline since: 2016-05-30 11:52:03 UTC
WMKK 301200Z 25003KT 9999 FEW030 SCT140 BKN280 29/24 Q1008 NOSIG

Lumpur Contro/Radar (East): 134.250

WMSA/WMKK Twr/App/Radar
Sepang, Malaysia

Feed Status: DOWN
Offline since: 2016-05-18 04:12:03 UTC
WMSA 301200Z 27005KT 9999 FEW019 SCT140 BKN280 30/25 Q1009

Air Force Ground: 125.200
Air Force Ground: 120.300
Lumpur Approach: 119.450
Lumpur Approach: 132.800
Lumpur Approach: 132.600
Lumpur Approach: 133.400
Lumpur Approach: 123.750
Lumpur Director: 125.100
Lumpur Director: 124.200
Lumpur Tower: 118.500
Lumpur Tower: 118.800
Misc-TBD:
Subang Tower: 118.200

WMKP Tower (Archives)
Penang, Malaysia

Feed Status: UP

Click on your favorite media player to listen:
Listen with WinAmp to WMKP Tower  Listen with iTunes to WMKP Tower  Click here to listen if using Real Player  Click here to listen if using Windows Media Player

Or simply listen in your browser:

Listen right in your browser(in browser, requires Flash)

WMKP 301200Z 03006KT 8000 FEW025 SCT140 BKN270 27/24 Q1009 NOSIG


Listeners: 0 out of 861 total

Penang Tower: 121.100

WMSA/WMKK Twr/App/Radar
Subang, Malaysia

Feed Status: DOWN
Offline since: 2016-05-18 04:12:03 UTC
WMSA 301200Z 27005KT 9999 FEW019 SCT140 BKN280 30/25 Q1009

Air Force Ground: 125.200
Air Force Ground: 120.300
Lumpur Approach: 119.450
Lumpur Approach: 132.800
Lumpur Approach: 132.600
Lumpur Approach: 133.400
Lumpur Approach: 123.750
Lumpur Director: 125.100
Lumpur Director: 124.200
Lumpur Tower: 118.500
Lumpur Tower: 118.800
Misc-TBD:
Subang Tower: 118.200

WSAP Approach (Archives)
Singapore, Singapore

Feed Status: UP

Click on your favorite media player to listen:
Listen with WinAmp to WSAP Approach  Listen with iTunes to WSAP Approach  Click here to listen if using Real Player  Click here to listen if using Windows Media Player

Or simply listen in your browser:

Listen right in your browser(in browser, requires Flash)

WSAP 301200Z 17005KT 9000 TS FEW016CB FEW018TCU SCT150 30/25 Q1009


Listeners: 5 out of 861 total

Paya Lebar Approach: 119.900

WSAP Tower (Archives)
Singapore, Singapore

Feed Status: UP

Click on your favorite media player to listen:
Listen with WinAmp to WSAP Tower  Listen with iTunes to WSAP Tower  Click here to listen if using Real Player  Click here to listen if using Windows Media Player

Or simply listen in your browser:

Listen right in your browser(in browser, requires Flash)

WSAP 301200Z 17005KT 9000 TS FEW016CB FEW018TCU SCT150 30/25 Q1009


Listeners: 2 out of 861 total

Paya Lebar Tower: 118.050

WSSL Tower (Archives)
Singapore, Singapore

Feed Status: UP

Click on your favorite media player to listen:
Listen with WinAmp to WSSL Tower  Listen with iTunes to WSSL Tower  Click here to listen if using Real Player  Click here to listen if using Windows Media Player

Or simply listen in your browser:

Listen right in your browser(in browser, requires Flash)

WSSL 301200Z 14006KT 9999 TS FEW013 FEW017CB FEW018TCU SCT150 30/24 Q1009 RMK 1130Z Q1009


Listeners: 0 out of 861 total

Seletar Tower: 118.450

WSSS Approach/Departure (Archives)
Singapore, Singapore

Feed Status: UP

Click on your favorite media player to listen:
Listen with WinAmp to WSSS Approach/Departure  Listen with iTunes to WSSS Approach/Departure  Click here to listen if using Real Player  Click here to listen if using Windows Media Player

Or simply listen in your browser:

Listen right in your browser(in browser, requires Flash)

WSSS 301230Z 03003KT 020V120 9999 TS FEW014 FEW016CB SCT150 28/23 Q1010 NOSIG


Listeners: 0 out of 861 total

Singapore Approach/Departure: 120.300

WSSS Arrival (Archives)
Singapore, Singapore

Feed Status: UP

Click on your favorite media player to listen:
Listen with WinAmp to WSSS Arrival  Listen with iTunes to WSSS Arrival  Click here to listen if using Real Player  Click here to listen if using Windows Media Player

Or simply listen in your browser:

Listen right in your browser(in browser, requires Flash)

WSSS 301230Z 03003KT 020V120 9999 TS FEW014 FEW016CB SCT150 28/23 Q1010 NOSIG


Listeners: 1 out of 861 total

Singapore Arrival: 119.300

WSSS Radar (Archives)
Singapore, Singapore

Feed Status: UP

Click on your favorite media player to listen:
Listen with WinAmp to WSSS Radar  Listen with iTunes to WSSS Radar  Click here to listen if using Real Player  Click here to listen if using Windows Media Player

Or simply listen in your browser:

Listen right in your browser(in browser, requires Flash)

WSSS 301230Z 03003KT 020V120 9999 TS FEW014 FEW016CB SCT150 28/23 Q1010 NOSIG


Listeners: 3 out of 861 total

Singapore Control: 134.350
Singapore Radar: 124.050
Singapore Radar (East): 123.700
Singapore Radar (SE): 134.200
Singapore Radar (South): 134.400
Singapore Radar (West): 133.250

WSSS Tower #1 (Archives)
Singapore, Singapore

Feed Status: UP

Click on your favorite media player to listen:
Listen with WinAmp to WSSS Tower #1  Listen with iTunes to WSSS Tower #1  Click here to listen if using Real Player  Click here to listen if using Windows Media Player

Or simply listen in your browser:

Listen right in your browser(in browser, requires Flash)

WSSS 301230Z 03003KT 020V120 9999 TS FEW014 FEW016CB SCT150 28/23 Q1010 NOSIG


Listeners: 0 out of 861 total

Singapore Tower: 118.600

WSSS Tower #2 (Archives)
Singapore, Singapore

Feed Status: UP

Click on your favorite media player to listen:
Listen with WinAmp to WSSS Tower #2  Listen with iTunes to WSSS Tower #2  Click here to listen if using Real Player  Click here to listen if using Windows Media Player

Or simply listen in your browser:

Listen right in your browser(in browser, requires Flash)

WSSS 301230Z 03003KT 020V120 9999 TS FEW014 FEW016CB SCT150 28/23 Q1010 NOSIG


Listeners: 0 out of 861 total

Singapore Tower (Rwy 02R/20L 0000-1600Z): 118.250

WSSS Tower (both) (Archives)
Singapore, Singapore

Feed Status: UP

Click on your favorite media player to listen:
Listen with WinAmp to WSSS Tower (both)  Listen with iTunes to WSSS Tower (both)  Click here to listen if using Real Player  Click here to listen if using Windows Media Player

Or simply listen in your browser:

Listen right in your browser(in browser, requires Flash)

WSSS 301230Z 03003KT 020V120 9999 TS FEW014 FEW016CB SCT150 28/23 Q1010 NOSIG


Listeners: 0 out of 861 total

Singapore Tower: 118.600
Singapore Tower (Rwy 02R/20L 0000-1600Z): 118.250

ZBAA Tower (Archives)
Beijing, China

Feed Status: UP

Click on your favorite media player to listen:
Listen with WinAmp to ZBAA Tower  Listen with iTunes to ZBAA Tower  Click here to listen if using Real Player  Click here to listen if using Windows Media Player

Or simply listen in your browser:

Listen right in your browser(in browser, requires Flash)

ZBAA 301200Z 14002MPS CAVOK 30/17 Q1000 NOSIG


Listeners: 5 out of 861 total

Beijing Tower (Rwy 01/19): 118.600

ZLXY Twr/App (Archives)
Xian, China

Feed Status: UP

Click on your favorite media player to listen:
Listen with WinAmp to ZLXY Twr/App  Listen with iTunes to ZLXY Twr/App  Click here to listen if using Real Player  Click here to listen if using Windows Media Player

Or simply listen in your browser:

Listen right in your browser(in browser, requires Flash)

ZLXY 301200Z 04003MPS CAVOK 26/13 Q1002 NOSIG


Listeners: 0 out of 861 total

Xian Approach 01: 125.100
Xian Approach 02: 119.050
Xian Approach 03: 119.600
Xian Approach 04: 119.900
Xian Tower (North): 124.300
Xian Tower (South): 130.450

ZSSS Approach
Shanghai, China

Feed Status: DOWN
Offline since: 2016-04-21 06:09:09 UTC
ZSSS 301200Z 15004MPS 7000 NSC 22/19 Q1009 NOSIG

Hongqiao Delivery (evening): 121.750
Shanghai Approach (morning): 126.650